<?xml version='1.0' encoding='UTF-8'?><gpx version="1.1" creator="JPX - https://github.com/jenetics/jpx" xmlns="http://www.topografix.com/GPX/1/1"><trk><trkseg><trkpt lat="45.870605202390905" lon="9.993115161284734"><ele>604.5</ele><time>2026-04-05T14:45:11Z</time></trkpt><trkpt lat="45.87071281937676" lon="9.993491084611454"><ele>607.0</ele><time>2026-04-05T14:45:14Z</time></trkpt><trkpt lat="45.870971835583205" lon="9.9934835213053"><ele>607.0</ele><time>2026-04-05T14:46:14.997Z</time></trkpt><trkpt lat="45.871040755608526" lon="9.99347620761979"><ele>607.0</ele><time>2026-04-05T14:46:15.997Z</time></trkpt><trkpt lat="45.87092904000778" lon="9.993501773490976"><ele>607.0</ele><time>2026-04-05T14:46:25.998Z</time></trkpt><trkpt lat="45.870820146826" lon="9.993478872448907"><ele>607.0</ele><time>2026-04-05T14:46:29.998Z</time></trkpt><trkpt lat="45.87076710696053" lon="9.99353136104355"><ele>607.0</ele><time>2026-04-05T14:47:02.999Z</time></trkpt><trkpt lat="45.8704591775743" lon="9.993386249998577"><ele>606.9999999999999</ele><time>2026-04-05T14:48:19.998Z</time></trkpt><trkpt lat="45.87053423925174" lon="9.993434898274732"><ele>607.0</ele><time>2026-04-05T14:50:28.023Z</time></trkpt><trkpt lat="45.87059488090638" lon="9.993468336778372"><ele>607.0</ele><time>2026-04-05T14:50:56.001Z</time></trkpt><trkpt lat="45.87065461673591" lon="9.993501413628433"><ele>607.0</ele><time>2026-04-05T14:53:12.001Z</time></trkpt><trkpt lat="45.870690231042616" lon="9.993395765108666"><ele>607.0</ele><time>2026-04-05T15:16:37Z</time></trkpt><trkpt lat="45.870644124447836" lon="9.993326971139767"><ele>606.9999999999999</ele><time>2026-04-05T15:17:15Z</time></trkpt><trkpt lat="45.870581573687815" lon="9.99334570171338"><ele>607.0</ele><time>2026-04-05T15:18:06.999Z</time></trkpt><trkpt lat="45.870522238889286" lon="9.993428291370988"><ele>606.9999999999999</ele><time>2026-04-05T15:18:13.999Z</time></trkpt><trkpt lat="45.87047743860964" lon="9.993503353484508"><ele>607.0</ele><time>2026-04-05T15:18:23Z</time></trkpt><trkpt lat="45.87044589162354" lon="9.993588065735322"><ele>607.0</ele><time>2026-04-05T15:18:34Z</time></trkpt><trkpt lat="45.870384467046215" lon="9.99362319219622"><ele>607.0</ele><time>2026-04-05T15:18:42Z</time></trkpt><trkpt lat="45.87031610528217" lon="9.993615697142454"><ele>607.0</ele><time>2026-04-05T15:18:56Z</time></trkpt><trkpt lat="45.87024245216638" lon="9.993656154705386"><ele>606.9999999999999</ele><time>2026-04-05T15:19:21Z</time></trkpt><trkpt lat="45.8701806653585" lon="9.993677911464461"><ele>607.0</ele><time>2026-04-05T15:19:26Z</time></trkpt><trkpt lat="45.870106773082014" lon="9.99369753643302"><ele>606.4285714285713</ele><time>2026-04-05T15:19:31Z</time></trkpt><trkpt lat="45.87004721858494" lon="9.993729691795496"><ele>605.8571428571429</ele><time>2026-04-05T15:19:39Z</time></trkpt><trkpt lat="45.87000776820261" lon="9.993800518983512"><ele>605.2857142857142</ele><time>2026-04-05T15:19:51Z</time></trkpt><trkpt lat="45.86994174734734" lon="9.993804865500461"><ele>604.7142857142857</ele><time>2026-04-05T15:20:01.999Z</time></trkpt><trkpt lat="45.86987446212336" lon="9.993830965996464"><ele>604.1428571428571</ele><time>2026-04-05T15:20:05.999Z</time></trkpt><trkpt lat="45.86981307101186" lon="9.993856084232235"><ele>603.5714285714286</ele><time>2026-04-05T15:20:13.999Z</time></trkpt><trkpt lat="45.86977014287429" lon="9.993940061101947"><ele>603.0</ele><time>2026-04-05T15:20:19.999Z</time></trkpt><trkpt lat="45.869719734917744" lon="9.994000044681577"><ele>603.0</ele><time>2026-04-05T15:20:28Z</time></trkpt><trkpt lat="45.8697247456063" lon="9.994105015911869"><ele>603.0</ele><time>2026-04-05T15:20:35Z</time></trkpt><trkpt lat="45.869729800743656" lon="9.994201634043536"><ele>603.0</ele><time>2026-04-05T15:20:42Z</time></trkpt><trkpt lat="45.86967667224105" lon="9.994261697952146"><ele>603.0</ele><time>2026-04-05T15:20:47Z</time></trkpt><trkpt lat="45.869648498465466" lon="9.994357418349502"><ele>603.0</ele><time>2026-04-05T15:20:56Z</time></trkpt><trkpt lat="45.869597579483504" lon="9.994434790648363"><ele>603.0</ele><time>2026-04-05T15:21:03Z</time></trkpt><trkpt lat="45.86956570945259" lon="9.994513807245236"><ele>603.0</ele><time>2026-04-05T15:21:13Z</time></trkpt><trkpt lat="45.86952941797608" lon="9.994590795806353"><ele>603.1428571428572</ele><time>2026-04-05T15:21:19Z</time></trkpt><trkpt lat="45.869509177214745" lon="9.99471500384087"><ele>603.2857142857142</ele><time>2026-04-05T15:21:27Z</time></trkpt><trkpt lat="45.86945188541836" lon="9.99475321041847"><ele>603.4285714285714</ele><time>2026-04-05T15:21:32Z</time></trkpt><trkpt lat="45.869406244041635" lon="9.99483232148733"><ele>603.5714285714287</ele><time>2026-04-05T15:21:38Z</time></trkpt><trkpt lat="45.86934808166376" lon="9.994900692962336"><ele>603.7142857142858</ele><time>2026-04-05T15:21:46Z</time></trkpt><trkpt lat="45.869297282872196" lon="9.99498531777487"><ele>603.8571428571429</ele><time>2026-04-05T15:21:53Z</time></trkpt><trkpt lat="45.869246703205896" lon="9.995043200628619"><ele>604.0</ele><time>2026-04-05T15:22:00Z</time></trkpt><trkpt lat="45.869200225536844" lon="9.995104255888684"><ele>604.1666666666667</ele><time>2026-04-05T15:22:26.999Z</time></trkpt><trkpt lat="45.86916411800178" lon="9.995185957229765"><ele>604.3333333333334</ele><time>2026-04-05T15:22:42Z</time></trkpt><trkpt lat="45.86909299270727" lon="9.995247647402714"><ele>604.5</ele><time>2026-04-05T15:22:48Z</time></trkpt><trkpt lat="45.86903530828301" lon="9.995380088812587"><ele>604.6666666666666</ele><time>2026-04-05T15:22:58Z</time></trkpt><trkpt lat="45.86898156802461" lon="9.995438483975686"><ele>604.8333333333333</ele><time>2026-04-05T15:23:06Z</time></trkpt><trkpt lat="45.8689483929499" lon="9.99552842991477"><ele>605.0</ele><time>2026-04-05T15:23:14Z</time></trkpt><trkpt lat="45.86887418335881" lon="9.99557067258617"><ele>605.0</ele><time>2026-04-05T15:23:19Z</time></trkpt><trkpt lat="45.86882348742397" lon="9.995646740258971"><ele>605.0</ele><time>2026-04-05T15:23:27Z</time></trkpt><trkpt lat="45.86877079634388" lon="9.995699025012652"><ele>605.0</ele><time>2026-04-05T15:23:32Z</time></trkpt><trkpt lat="45.86872190831076" lon="9.995768027017766"><ele>605.0</ele><time>2026-04-05T15:23:37Z</time></trkpt><trkpt lat="45.86867474456751" lon="9.995834546953972"><ele>605.0</ele><time>2026-04-05T15:23:45Z</time></trkpt><trkpt lat="45.86863123722782" lon="9.995905512920002"><ele>605.0</ele><time>2026-04-05T15:23:57Z</time></trkpt><trkpt lat="45.86857219670346" lon="9.995954214393533"><ele>605.0</ele><time>2026-04-05T15:24:03Z</time></trkpt><trkpt lat="45.86852885954067" lon="9.996027712892063"><ele>605.1428571428571</ele><time>2026-04-05T15:24:07Z</time></trkpt><trkpt lat="45.868466643765" lon="9.996101728885748"><ele>605.2857142857143</ele><time>2026-04-05T15:24:13Z</time></trkpt><trkpt lat="45.86841754158435" lon="9.99618004522139"><ele>605.4285714285714</ele><time>2026-04-05T15:24:35Z</time></trkpt><trkpt lat="45.86835656154429" lon="9.99620990382753"><ele>605.5714285714286</ele><time>2026-04-05T15:24:40Z</time></trkpt><trkpt lat="45.8682995928224" lon="9.996258338283978"><ele>605.7142857142857</ele><time>2026-04-05T15:24:48Z</time></trkpt><trkpt lat="45.868235240984305" lon="9.996307897169556"><ele>605.8571428571429</ele><time>2026-04-05T15:24:54Z</time></trkpt><trkpt lat="45.86817463596911" lon="9.996352583627525"><ele>606.0</ele><time>2026-04-05T15:25:00Z</time></trkpt><trkpt lat="45.86812192345932" lon="9.996411261604308"><ele>606.0</ele><time>2026-04-05T15:25:07Z</time></trkpt><trkpt lat="45.86807485333041" lon="9.996481413728665"><ele>606.0</ele><time>2026-04-05T15:25:13Z</time></trkpt><trkpt lat="45.868013564445945" lon="9.996512722123615"><ele>606.0</ele><time>2026-04-05T15:25:19Z</time></trkpt><trkpt lat="45.86796541205148" lon="9.996574992706583"><ele>606.0</ele><time>2026-04-05T15:25:32Z</time></trkpt><trkpt lat="45.86790543302808" lon="9.996620620504236"><ele>606.0</ele><time>2026-04-05T15:25:40Z</time></trkpt><trkpt lat="45.86785254671379" lon="9.996685558658198"><ele>606.0</ele><time>2026-04-05T15:25:58Z</time></trkpt><trkpt lat="45.86780655293966" lon="9.99676030083244"><ele>606.0</ele><time>2026-04-05T15:26:03Z</time></trkpt><trkpt lat="45.867770739693114" lon="9.996838659521607"><ele>621.0</ele><time>2026-04-05T15:26:09Z</time></trkpt><trkpt lat="45.86773096636873" lon="9.996921300097426"><ele>621.0</ele><time>2026-04-05T15:26:14Z</time></trkpt><trkpt lat="45.86767911356897" lon="9.99699233386556"><ele>621.0</ele><time>2026-04-05T15:26:20Z</time></trkpt><trkpt lat="45.86773919281731" lon="9.997028045807886"><ele>621.0</ele><time>2026-04-05T15:26:50Z</time></trkpt><trkpt lat="45.86780314335617" lon="9.996992680052422"><ele>621.0</ele><time>2026-04-05T15:26:58Z</time></trkpt><trkpt lat="45.867897289186615" lon="9.997065078641578"><ele>621.0</ele><time>2026-04-05T15:27:04Z</time></trkpt><trkpt lat="45.867957044221264" lon="9.997096104539064"><ele>621.0</ele><time>2026-04-05T15:27:14Z</time></trkpt></trkseg></trk></gpx>